sensor_id;sensor_type;location;lat;lon;timestamp;pressure;altitude;pressure_sealevel;temperature
74539;BMP180;66042;51.090;-115.340;2022-12-18T00:01:33;86247.60;;;-16.10
74539;BMP180;66042;51.090;-115.340;2022-12-18T00:04:05;86246.60;;;-16.10
74539;BMP180;66042;51.090;-115.340;2022-12-18T00:06:35;86242.60;;;-16.10
74539;BMP180;66042;51.090;-115.340;2022-12-18T00:09:03;86248.60;;;-16.10
74539;BMP180;66042;51.090;-115.340;2022-12-18T00:11:31;86242.00;;;-16.10
74539;BMP180;66042;51.090;-115.340;2022-12-18T00:14:00;86252.60;;;-16.20
74539;BMP180;66042;51.090;-115.340;2022-12-18T00:16:28;86252.40;;;-16.20
74539;BMP180;66042;51.090;-115.340;2022-12-18T00:18:57;86243.60;;;-16.20
74539;BMP180;66042;51.090;-115.340;2022-12-18T00:21:26;86238.20;;;-16.20
74539;BMP180;66042;51.090;-115.340;2022-12-18T00:23:53;86242.00;;;-16.20
74539;BMP180;66042;51.090;-115.340;2022-12-18T00:26:24;86245.20;;;-16.20
74539;BMP180;66042;51.090;-115.340;2022-12-18T00:28:52;86246.80;;;-16.28
74539;BMP180;66042;51.090;-115.340;2022-12-18T00:31:23;86249.40;;;-16.30
74539;BMP180;66042;51.090;-115.340;2022-12-18T00:33:50;86259.00;;;-16.30
74539;BMP180;66042;51.090;-115.340;2022-12-18T00:36:23;86253.20;;;-16.34
74539;BMP180;66042;51.090;-115.340;2022-12-18T00:38:50;86262.40;;;-16.40
74539;BMP180;66042;51.090;-115.340;2022-12-18T00:41:21;86258.40;;;-16.40
74539;BMP180;66042;51.090;-115.340;2022-12-18T00:44:10;86258.40;;;-16.50
74539;BMP180;66042;51.090;-115.340;2022-12-18T00:46:38;86267.00;;;-16.50
74539;BMP180;66042;51.090;-115.340;2022-12-18T00:49:06;86261.00;;;-16.56
74539;BMP180;66042;51.090;-115.340;2022-12-18T00:51:33;86263.00;;;-16.60
74539;BMP180;66042;51.090;-115.340;2022-12-18T00:54:00;86258.40;;;-16.60
74539;BMP180;66042;51.090;-115.340;2022-12-18T00:56:27;86261.20;;;-16.70
74539;BMP180;66042;51.090;-115.340;2022-12-18T00:58:54;86269.40;;;-16.70
74539;BMP180;66042;51.090;-115.340;2022-12-18T01:01:21;86258.20;;;-16.80
74539;BMP180;66042;51.090;-115.340;2022-12-18T01:03:50;86270.20;;;-16.80
74539;BMP180;66042;51.090;-115.340;2022-12-18T01:06:17;86263.20;;;-16.90
74539;BMP180;66042;51.090;-115.340;2022-12-18T01:08:44;86254.60;;;-16.90
74539;BMP180;66042;51.090;-115.340;2022-12-18T01:11:16;86263.40;;;-17.00
74539;BMP180;66042;51.090;-115.340;2022-12-18T01:13:43;86261.20;;;-17.08
74539;BMP180;66042;51.090;-115.340;2022-12-18T01:16:16;86258.60;;;-17.10
74539;BMP180;66042;51.090;-115.340;2022-12-18T01:18:44;86258.60;;;-17.12
74539;BMP180;66042;51.090;-115.340;2022-12-18T01:21:15;86263.60;;;-17.20
74539;BMP180;66042;51.090;-115.340;2022-12-18T01:23:46;86269.60;;;-17.30
74539;BMP180;66042;51.090;-115.340;2022-12-18T01:26:15;86266.40;;;-17.30
74539;BMP180;66042;51.090;-115.340;2022-12-18T01:28:43;86268.20;;;-17.36
74539;BMP180;66042;51.090;-115.340;2022-12-18T01:31:19;86269.20;;;-17.40
74539;BMP180;66042;51.090;-115.340;2022-12-18T01:33:47;86264.60;;;-17.40
74539;BMP180;66042;51.090;-115.340;2022-12-18T01:36:32;86263.60;;;-17.48
74539;BMP180;66042;51.090;-115.340;2022-12-18T01:39:06;86262.60;;;-17.50
74539;BMP180;66042;51.090;-115.340;2022-12-18T01:41:34;86266.20;;;-17.56
74539;BMP180;66042;51.090;-115.340;2022-12-18T01:45:02;86267.20;;;-17.60
74539;BMP180;66042;51.090;-115.340;2022-12-18T01:50:42;86268.40;;;-17.70
74539;BMP180;66042;51.090;-115.340;2022-12-18T01:53:21;86271.20;;;-17.62
74539;BMP180;66042;51.090;-115.340;2022-12-18T01:55:58;86274.00;;;-17.62
74539;BMP180;66042;51.090;-115.340;2022-12-18T01:58:42;86267.40;;;-17.70
74539;BMP180;66042;51.090;-115.340;2022-12-18T02:01:10;86273.60;;;-17.70
74539;BMP180;66042;51.090;-115.340;2022-12-18T02:03:42;86277.60;;;-17.70
74539;BMP180;66042;51.090;-115.340;2022-12-18T02:06:40;86283.40;;;-17.70
74539;BMP180;66042;51.090;-115.340;2022-12-18T02:09:28;86282.00;;;-17.70
74539;BMP180;66042;51.090;-115.340;2022-12-18T02:12:49;86290.60;;;-17.70
74539;BMP180;66042;51.090;-115.340;2022-12-18T02:18:23;86296.20;;;-17.70
74539;BMP180;66042;51.090;-115.340;2022-12-18T02:27:04;86296.40;;;-17.80
74539;BMP180;66042;51.090;-115.340;2022-12-18T02:29:54;86297.80;;;-17.80
74539;BMP180;66042;51.090;-115.340;2022-12-18T02:32:28;86306.00;;;-17.80
74539;BMP180;66042;51.090;-115.340;2022-12-18T02:34:58;86313.40;;;-17.80
74539;BMP180;66042;51.090;-115.340;2022-12-18T02:37:30;86303.80;;;-17.80
74539;BMP180;66042;51.090;-115.340;2022-12-18T02:40:00;86308.00;;;-17.82
74539;BMP180;66042;51.090;-115.340;2022-12-18T02:42:28;86311.40;;;-17.90
74539;BMP180;66042;51.090;-115.340;2022-12-18T02:44:55;86313.40;;;-17.90
74539;BMP180;66042;51.090;-115.340;2022-12-18T02:47:27;86324.40;;;-18.00
74539;BMP180;66042;51.090;-115.340;2022-12-18T02:50:38;86320.20;;;-18.00
74539;BMP180;66042;51.090;-115.340;2022-12-18T02:53:24;86315.80;;;-18.10
74539;BMP180;66042;51.090;-115.340;2022-12-18T02:56:38;86327.80;;;-18.10
74539;BMP180;66042;51.090;-115.340;2022-12-18T02:59:26;86325.20;;;-18.20
74539;BMP180;66042;51.090;-115.340;2022-12-18T03:02:18;86318.60;;;-18.20
74539;BMP180;66042;51.090;-115.340;2022-12-18T03:04:59;86317.00;;;-18.28
74539;BMP180;66042;51.090;-115.340;2022-12-18T03:07:58;86321.80;;;-18.30
74539;BMP180;66042;51.090;-115.340;2022-12-18T03:10:32;86321.20;;;-18.30
74539;BMP180;66042;51.090;-115.340;2022-12-18T03:13:13;86325.20;;;-18.30
74539;BMP180;66042;51.090;-115.340;2022-12-18T03:15:54;86326.80;;;-18.40
74539;BMP180;66042;51.090;-115.340;2022-12-18T03:18:53;86331.60;;;-18.40
74539;BMP180;66042;51.090;-115.340;2022-12-18T03:21:32;86323.80;;;-18.40
74539;BMP180;66042;51.090;-115.340;2022-12-18T03:24:01;86328.40;;;-18.40
74539;BMP180;66042;51.090;-115.340;2022-12-18T03:26:33;86332.00;;;-18.40
74539;BMP180;66042;51.090;-115.340;2022-12-18T03:29:11;86333.20;;;-18.50
74539;BMP180;66042;51.090;-115.340;2022-12-18T03:31:43;86338.60;;;-18.50
74539;BMP180;66042;51.090;-115.340;2022-12-18T03:34:29;86337.60;;;-18.50
74539;BMP180;66042;51.090;-115.340;2022-12-18T03:36:57;86333.20;;;-18.50
74539;BMP180;66042;51.090;-115.340;2022-12-18T03:39:25;86340.40;;;-18.60
74539;BMP180;66042;51.090;-115.340;2022-12-18T03:42:07;86344.00;;;-18.60
74539;BMP180;66042;51.090;-115.340;2022-12-18T03:50:19;86335.80;;;-18.76
74539;BMP180;66042;51.090;-115.340;2022-12-18T03:52:57;86343.40;;;-18.78
74539;BMP180;66042;51.090;-115.340;2022-12-18T03:55:30;86344.80;;;-18.74
74539;BMP180;66042;51.090;-115.340;2022-12-18T03:58:03;86335.40;;;-18.80
74539;BMP180;66042;51.090;-115.340;2022-12-18T04:00:31;86337.40;;;-18.80
74539;BMP180;66042;51.090;-115.340;2022-12-18T04:03:02;86337.60;;;-18.90
74539;BMP180;66042;51.090;-115.340;2022-12-18T04:05:34;86337.80;;;-18.90
74539;BMP180;66042;51.090;-115.340;2022-12-18T04:08:04;86341.20;;;-19.00
74539;BMP180;66042;51.090;-115.340;2022-12-18T04:10:31;86341.20;;;-19.00
74539;BMP180;66042;51.090;-115.340;2022-12-18T04:12:58;86344.60;;;-19.02
74539;BMP180;66042;51.090;-115.340;2022-12-18T04:15:25;86345.40;;;-19.10
74539;BMP180;66042;51.090;-115.340;2022-12-18T04:17:52;86347.80;;;-19.10
74539;BMP180;66042;51.090;-115.340;2022-12-18T04:20:19;86350.60;;;-19.10
74539;BMP180;66042;51.090;-115.340;2022-12-18T04:22:47;86345.60;;;-19.20
74539;BMP180;66042;51.090;-115.340;2022-12-18T04:25:14;86344.00;;;-19.20
74539;BMP180;66042;51.090;-115.340;2022-12-18T04:27:41;86351.80;;;-19.30
74539;BMP180;66042;51.090;-115.340;2022-12-18T04:30:09;86354.00;;;-19.30
74539;BMP180;66042;51.090;-115.340;2022-12-18T04:32:36;86354.40;;;-19.32
74539;BMP180;66042;51.090;-115.340;2022-12-18T04:35:03;86349.40;;;-19.40
74539;BMP180;66042;51.090;-115.340;2022-12-18T04:37:32;86348.40;;;-19.40
74539;BMP180;66042;51.090;-115.340;2022-12-18T04:39:59;86351.20;;;-19.40
74539;BMP180;66042;51.090;-115.340;2022-12-18T04:42:26;86350.20;;;-19.48
74539;BMP180;66042;51.090;-115.340;2022-12-18T04:44:53;86349.20;;;-19.50
74539;BMP180;66042;51.090;-115.340;2022-12-18T04:47:22;86342.60;;;-19.50
74539;BMP180;66042;51.090;-115.340;2022-12-18T04:49:49;86343.40;;;-19.60
74539;BMP180;66042;51.090;-115.340;2022-12-18T04:52:16;86342.80;;;-19.60
74539;BMP180;66042;51.090;-115.340;2022-12-18T04:54:43;86343.20;;;-19.68
74539;BMP180;66042;51.090;-115.340;2022-12-18T04:57:10;86345.60;;;-19.70
74539;BMP180;66042;51.090;-115.340;2022-12-18T04:59:37;86353.40;;;-19.80
74539;BMP180;66042;51.090;-115.340;2022-12-18T05:02:04;86346.00;;;-19.80
74539;BMP180;66042;51.090;-115.340;2022-12-18T05:04:32;86348.80;;;-19.88
74539;BMP180;66042;51.090;-115.340;2022-12-18T05:06:59;86348.40;;;-19.90
74539;BMP180;66042;51.090;-115.340;2022-12-18T05:09:26;86347.00;;;-19.90
74539;BMP180;66042;51.090;-115.340;2022-12-18T05:11:54;86357.00;;;-19.90
74539;BMP180;66042;51.090;-115.340;2022-12-18T05:14:21;86356.40;;;-19.90
74539;BMP180;66042;51.090;-115.340;2022-12-18T05:16:48;86346.20;;;-19.90
74539;BMP180;66042;51.090;-115.340;2022-12-18T05:19:15;86347.20;;;-19.90
74539;BMP180;66042;51.090;-115.340;2022-12-18T05:21:42;86351.60;;;-19.90
74539;BMP180;66042;51.090;-115.340;2022-12-18T05:24:08;86351.20;;;-19.90
74539;BMP180;66042;51.090;-115.340;2022-12-18T05:26:35;86351.60;;;-20.00
74539;BMP180;66042;51.090;-115.340;2022-12-18T05:29:02;86344.40;;;-20.00
74539;BMP180;66042;51.090;-115.340;2022-12-18T05:31:29;86344.80;;;-20.04
74539;BMP180;66042;51.090;-115.340;2022-12-18T05:33:55;86349.80;;;-20.10
74539;BMP180;66042;51.090;-115.340;2022-12-18T05:36:22;86352.00;;;-20.10
74539;BMP180;66042;51.090;-115.340;2022-12-18T05:38:50;86353.20;;;-20.10
74539;BMP180;66042;51.090;-115.340;2022-12-18T05:41:17;86355.00;;;-20.10
74539;BMP180;66042;51.090;-115.340;2022-12-18T05:43:45;86354.40;;;-20.10
74539;BMP180;66042;51.090;-115.340;2022-12-18T05:46:15;86356.60;;;-20.10
74539;BMP180;66042;51.090;-115.340;2022-12-18T05:48:44;86357.20;;;-20.10
74539;BMP180;66042;51.090;-115.340;2022-12-18T05:51:16;86352.80;;;-20.10
74539;BMP180;66042;51.090;-115.340;2022-12-18T05:53:43;86354.00;;;-20.10
74539;BMP180;66042;51.090;-115.340;2022-12-18T05:56:21;86351.80;;;-20.10
74539;BMP180;66042;51.090;-115.340;2022-12-18T05:58:52;86357.60;;;-20.18
74539;BMP180;66042;51.090;-115.340;2022-12-18T06:01:24;86366.20;;;-20.20
74539;BMP180;66042;51.090;-115.340;2022-12-18T06:03:52;86367.40;;;-20.20
74539;BMP180;66042;51.090;-115.340;2022-12-18T06:06:22;86364.40;;;-20.22
74539;BMP180;66042;51.090;-115.340;2022-12-18T06:08:50;86363.80;;;-20.30
74539;BMP180;66042;51.090;-115.340;2022-12-18T06:11:21;86365.60;;;-20.30
74539;BMP180;66042;51.090;-115.340;2022-12-18T06:13:54;86370.80;;;-20.30
74539;BMP180;66042;51.090;-115.340;2022-12-18T06:16:21;86372.80;;;-20.30
74539;BMP180;66042;51.090;-115.340;2022-12-18T06:18:51;86379.40;;;-20.30
74539;BMP180;66042;51.090;-115.340;2022-12-18T06:21:18;86378.20;;;-20.30
74539;BMP180;66042;51.090;-115.340;2022-12-18T06:23:46;86374.40;;;-20.30
74539;BMP180;66042;51.090;-115.340;2022-12-18T06:26:14;86376.60;;;-20.38
74539;BMP180;66042;51.090;-115.340;2022-12-18T06:28:41;86372.60;;;-20.38
74539;BMP180;66042;51.090;-115.340;2022-12-18T06:31:09;86375.80;;;-20.40
74539;BMP180;66042;51.090;-115.340;2022-12-18T06:33:37;86378.80;;;-20.40
74539;BMP180;66042;51.090;-115.340;2022-12-18T06:36:10;86378.60;;;-20.40
74539;BMP180;66042;51.090;-115.340;2022-12-18T06:38:42;86377.60;;;-20.42
74539;BMP180;66042;51.090;-115.340;2022-12-18T06:41:16;86381.40;;;-20.48
74539;BMP180;66042;51.090;-115.340;2022-12-18T06:43:44;86376.20;;;-20.40
74539;BMP180;66042;51.090;-115.340;2022-12-18T06:46:12;86381.40;;;-20.40
74539;BMP180;66042;51.090;-115.340;2022-12-18T06:48:39;86387.60;;;-20.40
74539;BMP180;66042;51.090;-115.340;2022-12-18T06:51:06;86394.00;;;-20.40
74539;BMP180;66042;51.090;-115.340;2022-12-18T06:53:33;86388.40;;;-20.40
74539;BMP180;66042;51.090;-115.340;2022-12-18T06:56:03;86386.80;;;-20.42
74539;BMP180;66042;51.090;-115.340;2022-12-18T06:58:30;86383.40;;;-20.46
74539;BMP180;66042;51.090;-115.340;2022-12-18T07:01:04;86386.20;;;-20.50
74539;BMP180;66042;51.090;-115.340;2022-12-18T07:03:31;86388.40;;;-20.50
74539;BMP180;66042;51.090;-115.340;2022-12-18T07:05:58;86386.20;;;-20.50
74539;BMP180;66042;51.090;-115.340;2022-12-18T07:08:26;86393.20;;;-20.58
74539;BMP180;66042;51.090;-115.340;2022-12-18T07:10:53;86391.20;;;-20.56
74539;BMP180;66042;51.090;-115.340;2022-12-18T07:13:20;86393.20;;;-20.50
74539;BMP180;66042;51.090;-115.340;2022-12-18T07:15:47;86384.60;;;-20.50
74539;BMP180;66042;51.090;-115.340;2022-12-18T07:18:15;86390.80;;;-20.50
74539;BMP180;66042;51.090;-115.340;2022-12-18T07:20:41;86395.40;;;-20.50
74539;BMP180;66042;51.090;-115.340;2022-12-18T07:23:08;86392.20;;;-20.52
74539;BMP180;66042;51.090;-115.340;2022-12-18T07:25:36;86400.80;;;-20.58
74539;BMP180;66042;51.090;-115.340;2022-12-18T07:28:04;86399.40;;;-20.54
74539;BMP180;66042;51.090;-115.340;2022-12-18T07:30:31;86403.40;;;-20.60
74539;BMP180;66042;51.090;-115.340;2022-12-18T07:32:58;86403.80;;;-20.60
74539;BMP180;66042;51.090;-115.340;2022-12-18T07:35:25;86406.60;;;-20.60
74539;BMP180;66042;51.090;-115.340;2022-12-18T07:37:52;86406.00;;;-20.56
74539;BMP180;66042;51.090;-115.340;2022-12-18T07:40:19;86401.00;;;-20.60
74539;BMP180;66042;51.090;-115.340;2022-12-18T07:42:46;86400.40;;;-20.60
74539;BMP180;66042;51.090;-115.340;2022-12-18T07:45:14;86392.40;;;-20.60
74539;BMP180;66042;51.090;-115.340;2022-12-18T07:47:41;86396.60;;;-20.60
74539;BMP180;66042;51.090;-115.340;2022-12-18T07:50:08;86403.60;;;-20.64
74539;BMP180;66042;51.090;-115.340;2022-12-18T07:52:35;86407.60;;;-20.70
74539;BMP180;66042;51.090;-115.340;2022-12-18T07:55:02;86409.80;;;-20.64
74539;BMP180;66042;51.090;-115.340;2022-12-18T07:57:29;86408.60;;;-20.62
74539;BMP180;66042;51.090;-115.340;2022-12-18T07:59:56;86407.20;;;-20.62
74539;BMP180;66042;51.090;-115.340;2022-12-18T08:02:26;86405.40;;;-20.70
74539;BMP180;66042;51.090;-115.340;2022-12-18T08:04:56;86412.00;;;-20.70
74539;BMP180;66042;51.090;-115.340;2022-12-18T08:07:24;86411.80;;;-20.70
74539;BMP180;66042;51.090;-115.340;2022-12-18T08:09:51;86412.00;;;-20.70
74539;BMP180;66042;51.090;-115.340;2022-12-18T08:12:18;86416.60;;;-20.74
74539;BMP180;66042;51.090;-115.340;2022-12-18T08:14:45;86411.40;;;-20.80
74539;BMP180;66042;51.090;-115.340;2022-12-18T08:17:13;86408.80;;;-20.82
74539;BMP180;66042;51.090;-115.340;2022-12-18T08:19:39;86414.80;;;-20.90
74539;BMP180;66042;51.090;-115.340;2022-12-18T08:22:07;86412.60;;;-20.90
74539;BMP180;66042;51.090;-115.340;2022-12-18T08:24:34;86414.00;;;-20.90
74539;BMP180;66042;51.090;-115.340;2022-12-18T08:27:00;86417.00;;;-20.90
74539;BMP180;66042;51.090;-115.340;2022-12-18T08:29:28;86411.40;;;-20.90
74539;BMP180;66042;51.090;-115.340;2022-12-18T08:31:55;86417.60;;;-20.90
74539;BMP180;66042;51.090;-115.340;2022-12-18T08:34:21;86409.80;;;-20.90
74539;BMP180;66042;51.090;-115.340;2022-12-18T08:36:49;86413.20;;;-20.90
74539;BMP180;66042;51.090;-115.340;2022-12-18T08:39:16;86416.40;;;-20.90
74539;BMP180;66042;51.090;-115.340;2022-12-18T08:41:43;86412.60;;;-20.90
74539;BMP180;66042;51.090;-115.340;2022-12-18T08:44:30;86417.20;;;-20.90
74539;BMP180;66042;51.090;-115.340;2022-12-18T08:47:07;86413.80;;;-20.98
74539;BMP180;66042;51.090;-115.340;2022-12-18T08:49:35;86417.20;;;-20.98
74539;BMP180;66042;51.090;-115.340;2022-12-18T08:52:02;86416.60;;;-20.94
74539;BMP180;66042;51.090;-115.340;2022-12-18T08:54:29;86414.20;;;-21.00
74539;BMP180;66042;51.090;-115.340;2022-12-18T08:56:56;86406.40;;;-21.00
74539;BMP180;66042;51.090;-115.340;2022-12-18T08:59:23;86415.40;;;-21.02
74539;BMP180;66042;51.090;-115.340;2022-12-18T09:01:53;86417.40;;;-21.08
74539;BMP180;66042;51.090;-115.340;2022-12-18T09:04:22;86414.40;;;-21.10
74539;BMP180;66042;51.090;-115.340;2022-12-18T09:06:49;86424.40;;;-21.18
74539;BMP180;66042;51.090;-115.340;2022-12-18T09:09:16;86426.00;;;-21.20
74539;BMP180;66042;51.090;-115.340;2022-12-18T09:11:43;86425.60;;;-21.14
74539;BMP180;66042;51.090;-115.340;2022-12-18T09:14:10;86433.00;;;-21.10
74539;BMP180;66042;51.090;-115.340;2022-12-18T09:16:37;86429.60;;;-21.12
74539;BMP180;66042;51.090;-115.340;2022-12-18T09:19:05;86440.40;;;-21.10
74539;BMP180;66042;51.090;-115.340;2022-12-18T09:21:35;86438.00;;;-21.10
74539;BMP180;66042;51.090;-115.340;2022-12-18T09:24:02;86442.40;;;-21.10
74539;BMP180;66042;51.090;-115.340;2022-12-18T09:26:29;86445.20;;;-21.10
74539;BMP180;66042;51.090;-115.340;2022-12-18T09:28:57;86441.40;;;-21.10
74539;BMP180;66042;51.090;-115.340;2022-12-18T09:31:24;86440.20;;;-21.04
74539;BMP180;66042;51.090;-115.340;2022-12-18T09:33:52;86438.00;;;-21.00
74539;BMP180;66042;51.090;-115.340;2022-12-18T09:36:19;86440.00;;;-21.00
74539;BMP180;66042;51.090;-115.340;2022-12-18T09:38:46;86441.20;;;-21.06
74539;BMP180;66042;51.090;-115.340;2022-12-18T09:44:32;86449.40;;;-21.10
74539;BMP180;66042;51.090;-115.340;2022-12-18T09:49:51;86456.80;;;-21.10
74539;BMP180;66042;51.090;-115.340;2022-12-18T09:52:34;86455.00;;;-21.10
74539;BMP180;66042;51.090;-115.340;2022-12-18T09:58:35;86458.80;;;-21.10
74539;BMP180;66042;51.090;-115.340;2022-12-18T10:01:10;86456.00;;;-21.10
74539;BMP180;66042;51.090;-115.340;2022-12-18T10:03:39;86458.60;;;-21.10
74539;BMP180;66042;51.090;-115.340;2022-12-18T10:06:35;86461.60;;;-21.10
74539;BMP180;66042;51.090;-115.340;2022-12-18T10:12:21;86464.20;;;-21.10
74539;BMP180;66042;51.090;-115.340;2022-12-18T10:25:01;86476.40;;;-21.10
74539;BMP180;66042;51.090;-115.340;2022-12-18T10:27:31;86483.40;;;-21.18
74539;BMP180;66042;51.090;-115.340;2022-12-18T10:30:00;86482.20;;;-21.20
74539;BMP180;66042;51.090;-115.340;2022-12-18T10:32:30;86482.60;;;-21.10
74539;BMP180;66042;51.090;-115.340;2022-12-18T10:34:58;86492.40;;;-21.10
74539;BMP180;66042;51.090;-115.340;2022-12-18T10:37:28;86491.40;;;-21.10
74539;BMP180;66042;51.090;-115.340;2022-12-18T10:40:16;86492.80;;;-21.10
74539;BMP180;66042;51.090;-115.340;2022-12-18T10:42:43;86485.00;;;-21.08
74539;BMP180;66042;51.090;-115.340;2022-12-18T10:45:16;86490.00;;;-21.10
74539;BMP180;66042;51.090;-115.340;2022-12-18T10:47:49;86483.20;;;-21.10
74539;BMP180;66042;51.090;-115.340;2022-12-18T10:50:33;86475.40;;;-21.10
74539;BMP180;66042;51.090;-115.340;2022-12-18T10:53:04;86474.00;;;-21.10
74539;BMP180;66042;51.090;-115.340;2022-12-18T10:55:40;86479.00;;;-21.10
74539;BMP180;66042;51.090;-115.340;2022-12-18T10:58:38;86492.00;;;-21.10
74539;BMP180;66042;51.090;-115.340;2022-12-18T11:04:00;86489.20;;;-21.10
74539;BMP180;66042;51.090;-115.340;2022-12-18T11:06:28;86491.80;;;-21.10
74539;BMP180;66042;51.090;-115.340;2022-12-18T11:09:18;86488.60;;;-21.12
74539;BMP180;66042;51.090;-115.340;2022-12-18T11:11:52;86494.60;;;-21.20
74539;BMP180;66042;51.090;-115.340;2022-12-18T11:14:46;86488.60;;;-21.28
74539;BMP180;66042;51.090;-115.340;2022-12-18T11:17:31;86484.80;;;-21.30
74539;BMP180;66042;51.090;-115.340;2022-12-18T11:20:34;86474.60;;;-21.30
74539;BMP180;66042;51.090;-115.340;2022-12-18T11:23:11;86472.20;;;-21.30
74539;BMP180;66042;51.090;-115.340;2022-12-18T11:25:39;86471.00;;;-21.38
74539;BMP180;66042;51.090;-115.340;2022-12-18T11:31:28;86471.00;;;-21.40
74539;BMP180;66042;51.090;-115.340;2022-12-18T11:36:47;86463.40;;;-21.40
74539;BMP180;66042;51.090;-115.340;2022-12-18T11:39:36;86470.00;;;-21.40
74539;BMP180;66042;51.090;-115.340;2022-12-18T11:42:12;86472.60;;;-21.32
74539;BMP180;66042;51.090;-115.340;2022-12-18T11:47:56;86463.80;;;-21.40
74539;BMP180;66042;51.090;-115.340;2022-12-18T11:50:54;86464.00;;;-21.38
74539;BMP180;66042;51.090;-115.340;2022-12-18T11:53:27;86470.40;;;-21.30
74539;BMP180;66042;51.090;-115.340;2022-12-18T11:56:32;86474.00;;;-21.30
74539;BMP180;66042;51.090;-115.340;2022-12-18T11:59:38;86476.20;;;-21.38
74539;BMP180;66042;51.090;-115.340;2022-12-18T12:02:42;86481.40;;;-21.32
74539;BMP180;66042;51.090;-115.340;2022-12-18T12:08:18;86478.00;;;-21.40
74539;BMP180;66042;51.090;-115.340;2022-12-18T12:10:58;86477.60;;;-21.44
74539;BMP180;66042;51.090;-115.340;2022-12-18T12:16:25;86467.00;;;-21.50
74539;BMP180;66042;51.090;-115.340;2022-12-18T12:22:16;86468.40;;;-21.60
74539;BMP180;66042;51.090;-115.340;2022-12-18T12:25:33;86460.60;;;-21.50
74539;BMP180;66042;51.090;-115.340;2022-12-18T12:28:47;86467.00;;;-21.52
74539;BMP180;66042;51.090;-115.340;2022-12-18T12:39:47;86462.00;;;-21.62
74539;BMP180;66042;51.090;-115.340;2022-12-18T12:42:34;86467.60;;;-21.62
74539;BMP180;66042;51.090;-115.340;2022-12-18T12:45:46;86480.60;;;-21.64
74539;BMP180;66042;51.090;-115.340;2022-12-18T12:48:50;86476.80;;;-21.60
74539;BMP180;66042;51.090;-115.340;2022-12-18T12:51:26;86477.00;;;-21.68
74539;BMP180;66042;51.090;-115.340;2022-12-18T12:53:58;86468.20;;;-21.68
74539;BMP180;66042;51.090;-115.340;2022-12-18T12:56:50;86467.20;;;-21.70
74539;BMP180;66042;51.090;-115.340;2022-12-18T13:08:34;86471.00;;;-21.76
74539;BMP180;66042;51.090;-115.340;2022-12-18T13:11:42;86468.00;;;-21.70
74539;BMP180;66042;51.090;-115.340;2022-12-18T13:14:35;86460.00;;;-21.70
74539;BMP180;66042;51.090;-115.340;2022-12-18T13:17:26;86466.80;;;-21.70
74539;BMP180;66042;51.090;-115.340;2022-12-18T13:20:15;86469.40;;;-21.72
74539;BMP180;66042;51.090;-115.340;2022-12-18T13:22:45;86467.60;;;-21.80
74539;BMP180;66042;51.090;-115.340;2022-12-18T13:28:09;86467.60;;;-21.80
74539;BMP180;66042;51.090;-115.340;2022-12-18T13:30:56;86467.80;;;-21.80
74539;BMP180;66042;51.090;-115.340;2022-12-18T13:36:16;86469.60;;;-21.74
74539;BMP180;66042;51.090;-115.340;2022-12-18T13:39:23;86471.80;;;-21.70
74539;BMP180;66042;51.090;-115.340;2022-12-18T13:45:01;86474.20;;;-21.72
74539;BMP180;66042;51.090;-115.340;2022-12-18T13:47:34;86470.20;;;-21.78
74539;BMP180;66042;51.090;-115.340;2022-12-18T13:50:27;86473.60;;;-21.80
74539;BMP180;66042;51.090;-115.340;2022-12-18T13:52:55;86475.00;;;-21.80
74539;BMP180;66042;51.090;-115.340;2022-12-18T13:55:23;86472.20;;;-21.80
74539;BMP180;66042;51.090;-115.340;2022-12-18T13:58:04;86470.80;;;-21.84
74539;BMP180;66042;51.090;-115.340;2022-12-18T14:00:31;86468.00;;;-21.90
74539;BMP180;66042;51.090;-115.340;2022-12-18T14:03:00;86470.40;;;-21.90
74539;BMP180;66042;51.090;-115.340;2022-12-18T14:05:30;86470.00;;;-21.90
74539;BMP180;66042;51.090;-115.340;2022-12-18T14:08:07;86469.60;;;-21.90
74539;BMP180;66042;51.090;-115.340;2022-12-18T14:10:40;86464.20;;;-21.90
74539;BMP180;66042;51.090;-115.340;2022-12-18T14:13:14;86466.60;;;-21.96
74539;BMP180;66042;51.090;-115.340;2022-12-18T14:15:49;86473.20;;;-21.98
74539;BMP180;66042;51.090;-115.340;2022-12-18T14:18:38;86469.20;;;-22.00
74539;BMP180;66042;51.090;-115.340;2022-12-18T14:21:29;86474.40;;;-22.00
74539;BMP180;66042;51.090;-115.340;2022-12-18T14:24:21;86480.40;;;-22.10
74539;BMP180;66042;51.090;-115.340;2022-12-18T14:26:50;86486.20;;;-22.12
74539;BMP180;66042;51.090;-115.340;2022-12-18T14:29:28;86489.00;;;-22.20
74539;BMP180;66042;51.090;-115.340;2022-12-18T14:32:16;86488.60;;;-22.30
74539;BMP180;66042;51.090;-115.340;2022-12-18T14:34:52;86496.00;;;-22.30
74539;BMP180;66042;51.090;-115.340;2022-12-18T14:37:26;86499.40;;;-22.30
74539;BMP180;66042;51.090;-115.340;2022-12-18T14:40:02;86491.20;;;-22.30
74539;BMP180;66042;51.090;-115.340;2022-12-18T14:42:31;86494.40;;;-22.34
74539;BMP180;66042;51.090;-115.340;2022-12-18T14:51:20;86491.20;;;-22.40
74539;BMP180;66042;51.090;-115.340;2022-12-18T14:54:12;86492.00;;;-22.40
74539;BMP180;66042;51.090;-115.340;2022-12-18T14:56:48;86487.20;;;-22.40
74539;BMP180;66042;51.090;-115.340;2022-12-18T14:59:25;86492.60;;;-22.48
74539;BMP180;66042;51.090;-115.340;2022-12-18T15:02:08;86488.40;;;-22.50
74539;BMP180;66042;51.090;-115.340;2022-12-18T15:04:41;86484.80;;;-22.50
74539;BMP180;66042;51.090;-115.340;2022-12-18T15:07:22;86491.80;;;-22.50
74539;BMP180;66042;51.090;-115.340;2022-12-18T15:10:23;86492.40;;;-22.50
74539;BMP180;66042;51.090;-115.340;2022-12-18T15:20:57;86486.20;;;-22.40
74539;BMP180;66042;51.090;-115.340;2022-12-18T15:26:19;86489.80;;;-22.50
74539;BMP180;66042;51.090;-115.340;2022-12-18T15:28:50;86493.80;;;-22.50
74539;BMP180;66042;51.090;-115.340;2022-12-18T15:31:38;86496.80;;;-22.50
74539;BMP180;66042;51.090;-115.340;2022-12-18T15:34:19;86497.20;;;-22.50
74539;BMP180;66042;51.090;-115.340;2022-12-18T15:36:47;86506.80;;;-22.54
74539;BMP180;66042;51.090;-115.340;2022-12-18T15:39:15;86513.00;;;-22.60
74539;BMP180;66042;51.090;-115.340;2022-12-18T15:41:42;86507.60;;;-22.60
74539;BMP180;66042;51.090;-115.340;2022-12-18T15:44:29;86512.20;;;-22.52